Airport View

Enter AWOS ICAO identifier for current METAR.

ex. KFNL

KPOU 251153Z 00000KT 10SM CLR 12/10 A3009 RMK AO2 SLP186 T01170100 10122 20094 53020

25 Sep 2020 11:57

Frequency: 126.75

Phone: 845-462-0648

Other Area AWOS: KSWF - KMGJ - KDXR - KHPN

TAF KPOU 250521Z 2506/2606 00000KT P6SM SKC TEMPO 2506/2509 3SM BR FM250900 00000KT 3SM BR SCT003 TEMPO 2509/2512 1SM BR BKN003 FM251200 VRB03KT P6SM SKC FM251800 22005KT P6SM SCT050 FM260000 VRB03KT P6SM SCT050